Terminal Aerodrome Forecast
Issued by NWS Lake Charles, LA

Home | Current Version | Previous Version | Text Only | Print | Product List | Glossary On
Versions: 1 2 3 4 5 6 7 8 9 10 11 12 13 14 15 16 17 18 19 20 21 22 23 24 25 26 27 28 29 30
519
FTUS44 KLCH 211357 AAB
TAFBPT
TAF AMD
KBPT 211357Z 2114/2212 11004KT 1/4SM FG OVC002
     FM211600 21012G18KT P6SM OVC010
     FM211900 20012G19KT P6SM VCTS OVC010CB
     FM220000 20005KT P6SM OVC060
     FM220500 24015G23KT P6SM OVC025=

USA.gov is the U.S. government's official web portal to all federal, state and local government web resources and services.